createdAt,value
2018-08-22T00:01:23.232Z,21.20
2018-08-22T00:03:50.509Z,21.20
2018-08-22T00:06:17.830Z,21.20
2018-08-22T00:08:45.303Z,21.10
2018-08-22T00:11:13.681Z,21.10
2018-08-22T00:13:41.788Z,21.10
2018-08-22T00:16:09.075Z,21.00
2018-08-22T00:18:36.356Z,21.00
2018-08-22T00:21:03.805Z,21.00
2018-08-22T00:23:31.094Z,21.00
2018-08-22T00:25:58.380Z,20.90
2018-08-22T00:28:25.703Z,20.90
2018-08-22T00:30:52.975Z,20.90
2018-08-22T00:33:20.255Z,20.90
2018-08-22T00:35:47.557Z,20.90
2018-08-22T00:38:14.854Z,20.80
2018-08-22T00:40:42.181Z,20.80
2018-08-22T00:43:09.470Z,20.80
2018-08-22T00:45:36.759Z,20.70
2018-08-22T00:48:04.282Z,20.70
2018-08-22T00:50:31.614Z,20.70
2018-08-22T00:52:58.889Z,20.70
2018-08-22T00:55:26.163Z,20.60
2018-08-22T00:57:53.439Z,20.60
2018-08-22T01:00:20.735Z,20.60
2018-08-22T01:02:48.043Z,20.50
2018-08-22T01:05:15.307Z,20.50
2018-08-22T01:07:42.649Z,20.50
2018-08-22T01:10:09.958Z,20.50
2018-08-22T01:12:37.514Z,20.40
2018-08-22T01:15:04.886Z,20.40
2018-08-22T01:17:32.182Z,20.40
2018-08-22T01:19:59.478Z,20.40
2018-08-22T01:22:26.775Z,20.40
2018-08-22T01:24:54.100Z,20.30
2018-08-22T01:27:22.490Z,20.30
2018-08-22T01:29:51.864Z,20.30
2018-08-22T01:32:19.460Z,20.30
2018-08-22T01:34:46.750Z,20.30
2018-08-22T01:37:14.042Z,20.30
2018-08-22T01:39:41.313Z,20.20
2018-08-22T01:42:08.602Z,20.20
2018-08-22T01:44:35.928Z,20.20
2018-08-22T01:47:03.264Z,20.20
2018-08-22T01:49:30.598Z,20.20
2018-08-22T01:51:57.875Z,20.20
2018-08-22T01:54:25.161Z,20.20
2018-08-22T01:56:52.457Z,20.20
2018-08-22T01:59:19.758Z,20.10
2018-08-22T02:01:47.059Z,20.10
2018-08-22T02:06:48.504Z,20.10
2018-08-22T02:09:15.809Z,20.10
2018-08-22T02:11:43.168Z,20.00
2018-08-22T02:14:11.123Z,20.00
2018-08-22T02:16:38.436Z,20.00
2018-08-22T02:19:06.230Z,20.00
2018-08-22T02:21:34.003Z,19.90
2018-08-22T02:24:01.278Z,19.90
2018-08-22T02:26:28.613Z,19.80
2018-08-22T02:28:55.919Z,19.90
2018-08-22T02:31:23.214Z,19.80
2018-08-22T02:33:50.659Z,19.80
2018-08-22T02:36:17.972Z,19.80
2018-08-22T02:38:45.290Z,19.80
2018-08-22T02:41:12.611Z,19.80
2018-08-22T02:43:39.931Z,19.80
2018-08-22T02:46:07.246Z,19.70
2018-08-22T02:48:40.251Z,19.70
2018-08-22T02:51:07.790Z,19.70
2018-08-22T02:53:35.121Z,19.70
2018-08-22T02:56:02.442Z,19.70
2018-08-22T02:58:29.744Z,19.70
2018-08-22T03:00:57.047Z,19.60
2018-08-22T03:03:24.342Z,19.70
2018-08-22T03:05:51.913Z,19.60
2018-08-22T03:08:19.223Z,19.70
2018-08-22T03:10:46.548Z,19.60
2018-08-22T03:13:13.866Z,19.60
2018-08-22T03:15:41.159Z,19.60
2018-08-22T03:18:08.443Z,19.60
2018-08-22T03:20:35.752Z,19.60
2018-08-22T03:23:03.039Z,19.60
2018-08-22T03:25:30.331Z,19.60
2018-08-22T03:27:57.797Z,19.60
2018-08-22T03:30:25.104Z,19.60
2018-08-22T03:32:52.412Z,19.60
2018-08-22T03:35:19.731Z,19.60
2018-08-22T03:37:47.019Z,19.60
2018-08-22T03:40:14.311Z,19.60
2018-08-22T03:42:41.621Z,19.60
2018-08-22T03:45:08.929Z,19.60
2018-08-22T03:47:36.997Z,19.60
2018-08-22T03:50:04.697Z,19.60
2018-08-22T03:55:06.267Z,19.60
2018-08-22T03:57:33.574Z,19.60
2018-08-22T04:00:00.860Z,19.60
2018-08-22T04:02:28.194Z,19.60
2018-08-22T04:04:55.508Z,19.60
2018-08-22T04:07:22.891Z,19.60
2018-08-22T04:09:50.298Z,19.60
2018-08-22T04:12:17.628Z,19.60
2018-08-22T04:14:45.092Z,19.60
2018-08-22T04:17:12.659Z,19.50
2018-08-22T04:22:14.011Z,19.50
2018-08-22T04:24:41.332Z,19.40
2018-08-22T04:27:08.613Z,19.50
2018-08-22T04:29:35.923Z,19.40
2018-08-22T04:32:03.359Z,19.50
2018-08-22T04:34:30.704Z,19.40
2018-08-22T04:36:58.015Z,19.40
2018-08-22T04:39:25.348Z,19.40
2018-08-22T04:41:52.648Z,19.40
2018-08-22T04:44:19.945Z,19.40
2018-08-22T04:46:47.471Z,19.40
2018-08-22T04:49:14.785Z,19.40
2018-08-22T04:51:42.092Z,19.40
2018-08-22T04:54:09.651Z,19.40
2018-08-22T04:56:36.978Z,19.50
2018-08-22T04:59:04.331Z,19.40
2018-08-22T05:01:31.657Z,19.50
2018-08-22T05:03:58.957Z,19.40
2018-08-22T05:06:26.268Z,19.50
2018-08-22T05:08:53.561Z,19.50
2018-08-22T05:11:20.901Z,19.50
2018-08-22T05:13:48.373Z,19.50
2018-08-22T05:16:15.659Z,19.50
2018-08-22T05:18:42.939Z,19.60
2018-08-22T05:21:10.248Z,19.60
2018-08-22T05:23:37.587Z,19.60
2018-08-22T05:26:04.888Z,19.60
2018-08-22T05:28:33.020Z,19.70
2018-08-22T05:31:00.327Z,19.70
2018-08-22T05:33:27.654Z,19.70
2018-08-22T05:35:55.035Z,19.80
2018-08-22T05:38:22.323Z,19.80
2018-08-22T05:40:49.653Z,19.90
2018-08-22T05:43:16.963Z,20.00
2018-08-22T05:45:44.266Z,20.00
2018-08-22T05:48:11.584Z,20.00
2018-08-22T05:50:38.943Z,20.10
2018-08-22T05:53:06.238Z,20.20
2018-08-22T05:55:33.572Z,20.20
2018-08-22T05:58:01.502Z,20.30
2018-08-22T06:00:28.847Z,20.40
2018-08-22T06:02:56.155Z,20.60
2018-08-22T06:05:23.471Z,20.80
2018-08-22T06:07:51.197Z,21.00
2018-08-22T06:10:18.650Z,21.20
2018-08-22T06:12:45.970Z,21.50
2018-08-22T06:15:13.275Z,21.70
2018-08-22T06:17:40.596Z,22.00
2018-08-22T06:20:07.990Z,22.30
2018-08-22T06:22:35.324Z,22.50
2018-08-22T06:25:02.775Z,22.70
2018-08-22T06:27:30.103Z,23.00
2018-08-22T06:29:57.645Z,23.20
2018-08-22T06:32:25.244Z,23.40
2018-08-22T06:34:52.812Z,23.60
2018-08-22T06:37:20.123Z,23.80
2018-08-22T06:39:47.435Z,24.10
2018-08-22T06:42:14.738Z,24.20
2018-08-22T06:44:42.067Z,24.50
2018-08-22T06:47:09.372Z,24.50
2018-08-22T06:49:36.678Z,24.90
2018-08-22T06:52:04.308Z,25.10
2018-08-22T06:54:31.631Z,25.30
2018-08-22T06:56:58.993Z,25.50
2018-08-22T06:59:26.299Z,25.70
2018-08-22T07:01:53.644Z,25.80
2018-08-22T07:06:48.246Z,26.10
2018-08-22T07:09:15.623Z,26.20
2018-08-22T07:11:42.935Z,26.30
2018-08-22T07:14:10.327Z,26.40
2018-08-22T07:16:37.748Z,26.50
2018-08-22T07:19:05.198Z,26.50
2018-08-22T07:21:32.529Z,26.50
2018-08-22T07:23:59.840Z,26.60
2018-08-22T07:26:27.214Z,26.60
2018-08-22T07:28:54.539Z,26.60
2018-08-22T07:31:21.852Z,26.50
2018-08-22T07:33:49.251Z,26.60
2018-08-22T07:36:16.596Z,26.60
2018-08-22T07:38:43.915Z,26.60
2018-08-22T07:41:11.229Z,26.70
2018-08-22T07:43:38.613Z,26.70
2018-08-22T07:46:05.971Z,26.80
2018-08-22T07:48:33.305Z,26.80
2018-08-22T07:51:00.601Z,26.90
2018-08-22T07:53:27.987Z,26.90
2018-08-22T07:55:55.261Z,27.00
2018-08-22T07:58:22.571Z,27.00
2018-08-22T08:00:49.876Z,27.00
2018-08-22T08:03:17.180Z,27.10
2018-08-22T08:05:44.507Z,27.10
2018-08-22T08:08:11.806Z,27.10
2018-08-22T08:10:39.097Z,27.10
2018-08-22T08:13:13.557Z,27.10
2018-08-22T08:15:41.520Z,27.20
2018-08-22T08:18:09.081Z,27.30
2018-08-22T08:20:36.397Z,27.30
2018-08-22T08:23:03.890Z,27.40
2018-08-22T08:25:31.250Z,27.40
2018-08-22T08:27:58.555Z,27.50
2018-08-22T08:30:26.059Z,27.60
2018-08-22T08:32:53.392Z,27.70
2018-08-22T08:35:20.717Z,27.70
2018-08-22T08:37:48.028Z,27.70
2018-08-22T08:40:15.371Z,27.80
2018-08-22T08:42:42.750Z,27.80
2018-08-22T08:45:10.900Z,27.90
2018-08-22T08:47:38.225Z,28.00
2018-08-22T08:50:05.609Z,28.00
2018-08-22T08:52:33.775Z,28.10
2018-08-22T08:55:01.091Z,28.10
2018-08-22T08:57:28.516Z,28.20
2018-08-22T08:59:55.960Z,28.30
2018-08-22T09:02:23.624Z,28.40
2018-08-22T09:04:50.915Z,28.50
2018-08-22T09:07:18.556Z,28.60
2018-08-22T09:09:45.903Z,28.70
2018-08-22T09:12:13.214Z,28.70
2018-08-22T09:14:40.783Z,28.80
2018-08-22T09:17:08.652Z,28.90
2018-08-22T09:19:35.997Z,28.90
2018-08-22T09:22:03.671Z,28.90
2018-08-22T09:24:30.981Z,29.00
2018-08-22T09:26:58.287Z,29.00
2018-08-22T09:29:26.087Z,29.00
2018-08-22T09:31:53.399Z,29.10
2018-08-22T09:34:20.717Z,29.20
2018-08-22T09:36:48.066Z,29.30
2018-08-22T09:39:15.420Z,29.40
2018-08-22T09:41:43.019Z,29.40
2018-08-22T09:46:38.472Z,29.60
2018-08-22T09:49:05.815Z,29.70
2018-08-22T09:51:33.161Z,29.80
2018-08-22T09:54:00.468Z,29.90
2018-08-22T09:56:28.057Z,30.00
2018-08-22T09:58:55.380Z,30.00
2018-08-22T10:01:27.260Z,30.00
2018-08-22T10:03:55.971Z,30.10
2018-08-22T10:06:29.982Z,30.20
2018-08-22T10:08:59.388Z,30.30
2018-08-22T10:11:26.713Z,30.40
2018-08-22T10:13:55.017Z,30.50
2018-08-22T10:16:22.468Z,30.50
2018-08-22T10:18:50.363Z,30.50
2018-08-22T10:21:17.666Z,30.60
2018-08-22T10:23:44.987Z,30.60
2018-08-22T10:26:12.295Z,30.60
2018-08-22T10:28:39.940Z,30.60
2018-08-22T10:31:07.254Z,30.60
2018-08-22T10:33:34.561Z,30.60
2018-08-22T10:36:01.884Z,30.60
2018-08-22T10:38:29.205Z,30.70
2018-08-22T10:40:56.821Z,30.60
2018-08-22T10:43:24.283Z,30.70
2018-08-22T10:45:52.044Z,30.70
2018-08-22T10:48:19.370Z,30.80
2018-08-22T10:50:47.255Z,30.90
2018-08-22T10:53:14.823Z,31.00
2018-08-22T10:55:42.285Z,31.10
2018-08-22T10:58:09.575Z,31.20
2018-08-22T11:00:36.887Z,31.30
2018-08-22T11:03:04.544Z,31.40
2018-08-22T11:05:31.836Z,31.50
2018-08-22T11:07:59.195Z,31.50
2018-08-22T11:10:26.483Z,31.60
2018-08-22T11:12:53.828Z,31.70
2018-08-22T11:15:21.115Z,31.80
2018-08-22T11:17:48.495Z,31.80
2018-08-22T11:20:15.825Z,31.80
2018-08-22T11:22:54.681Z,31.90
2018-08-22T11:25:33.731Z,31.90
2018-08-22T11:28:12.668Z,32.00
2018-08-22T11:30:51.516Z,32.10
2018-08-22T11:33:30.456Z,32.10
2018-08-22T11:35:56.816Z,32.20
2018-08-22T11:38:24.180Z,32.30
2018-08-22T11:40:51.491Z,32.30
2018-08-22T11:43:19.055Z,32.30
2018-08-22T11:45:46.396Z,32.40
2018-08-22T11:48:13.704Z,32.40
2018-08-22T11:50:41.078Z,32.40
2018-08-22T11:53:08.380Z,32.50
2018-08-22T11:55:35.672Z,32.60
2018-08-22T11:58:02.992Z,32.70
2018-08-22T12:00:30.528Z,32.70
2018-08-22T12:02:59.507Z,32.80
2018-08-22T12:05:26.832Z,32.90
2018-08-22T12:07:54.153Z,32.90
2018-08-22T12:10:25.262Z,32.90
2018-08-22T12:12:52.559Z,32.90
2018-08-22T12:15:19.890Z,32.90
2018-08-22T12:17:47.196Z,32.90
2018-08-22T12:20:14.511Z,33.00
2018-08-22T12:22:41.819Z,33.00
2018-08-22T12:25:09.143Z,33.00
2018-08-22T12:27:36.463Z,33.00
2018-08-22T12:30:03.843Z,32.90
2018-08-22T12:32:31.196Z,32.90
2018-08-22T12:34:58.515Z,32.90
2018-08-22T12:37:25.888Z,32.90
2018-08-22T12:39:53.188Z,32.90
2018-08-22T12:42:20.507Z,32.80
2018-08-22T12:44:47.834Z,32.80
2018-08-22T12:47:15.159Z,32.70
2018-08-22T12:49:42.498Z,32.60
2018-08-22T12:52:09.845Z,32.40
2018-08-22T12:54:37.170Z,32.20
2018-08-22T12:57:04.555Z,31.90
2018-08-22T12:59:31.874Z,31.80
2018-08-22T13:01:59.190Z,31.60
2018-08-22T13:04:26.487Z,31.40
2018-08-22T13:06:53.789Z,31.30
2018-08-22T13:09:21.125Z,31.10
2018-08-22T13:11:48.453Z,31.00
2018-08-22T13:14:15.784Z,31.00
2018-08-22T13:16:43.063Z,31.10
2018-08-22T13:19:10.374Z,31.10
2018-08-22T13:21:37.678Z,31.20
2018-08-22T13:24:05.013Z,31.30
2018-08-22T13:26:32.341Z,31.40
2018-08-22T13:28:59.661Z,31.50
2018-08-22T13:31:26.988Z,31.50
2018-08-22T13:33:54.285Z,31.50
2018-08-22T13:36:21.660Z,31.40
2018-08-22T13:38:48.883Z,31.40
2018-08-22T13:41:16.193Z,31.40
2018-08-22T13:43:43.484Z,31.40
2018-08-22T13:46:11.491Z,31.30
2018-08-22T13:48:38.779Z,31.10
2018-08-22T13:51:06.277Z,31.00
2018-08-22T13:53:33.585Z,30.90
2018-08-22T13:56:00.922Z,30.90
2018-08-22T13:58:28.228Z,30.90
2018-08-22T14:00:55.562Z,31.00
2018-08-22T14:03:22.864Z,31.00
2018-08-22T14:05:50.172Z,30.90
2018-08-22T14:08:17.473Z,30.90
2018-08-22T14:10:44.780Z,30.80
2018-08-22T14:13:12.095Z,30.80
2018-08-22T14:15:39.386Z,30.80
2018-08-22T14:18:06.904Z,30.80
2018-08-22T14:20:34.199Z,30.80
2018-08-22T14:23:01.527Z,30.80
2018-08-22T14:25:28.846Z,30.80
2018-08-22T14:27:56.155Z,30.80
2018-08-22T14:30:23.472Z,30.70
2018-08-22T14:32:50.746Z,30.70
2018-08-22T14:35:19.144Z,30.70
2018-08-22T14:37:46.444Z,30.70
2018-08-22T14:40:13.766Z,30.70
2018-08-22T14:42:41.082Z,30.70
2018-08-22T14:45:08.588Z,30.80
2018-08-22T14:47:35.951Z,30.80
2018-08-22T14:50:03.320Z,31.00
2018-08-22T14:52:31.015Z,31.10
2018-08-22T14:54:58.331Z,31.30
2018-08-22T14:57:25.868Z,31.50
2018-08-22T14:59:53.159Z,31.60
2018-08-22T15:02:20.494Z,31.80
2018-08-22T15:04:47.824Z,31.90
2018-08-22T15:07:15.208Z,32.00
2018-08-22T15:09:42.523Z,32.10
2018-08-22T15:12:09.832Z,32.10
2018-08-22T15:14:37.128Z,32.10
2018-08-22T15:17:04.485Z,32.10
2018-08-22T15:19:31.783Z,32.10
2018-08-22T15:22:05.994Z,32.10
2018-08-22T15:24:33.327Z,32.10
2018-08-22T15:27:01.146Z,32.00
2018-08-22T15:29:28.556Z,32.00
2018-08-22T15:31:55.843Z,31.90
2018-08-22T15:34:28.575Z,31.80
2018-08-22T15:36:55.873Z,31.70
2018-08-22T15:39:23.165Z,31.60
2018-08-22T15:41:50.718Z,31.50
2018-08-22T15:44:17.967Z,31.50
2018-08-22T15:46:45.280Z,31.40
2018-08-22T15:49:12.633Z,31.30
2018-08-22T15:51:39.919Z,31.20
2018-08-22T15:54:09.454Z,31.10
2018-08-22T15:56:38.456Z,31.00
2018-08-22T15:59:05.912Z,30.80
2018-08-22T16:01:33.262Z,30.70
2018-08-22T16:04:00.572Z,30.60
2018-08-22T16:06:27.861Z,30.50
2018-08-22T16:08:55.326Z,30.40
2018-08-22T16:11:23.208Z,30.40
2018-08-22T16:13:50.627Z,30.40
2018-08-22T16:16:17.964Z,30.30
2018-08-22T16:18:45.240Z,30.20
2018-08-22T16:21:12.546Z,30.10
2018-08-22T16:23:39.883Z,29.90
2018-08-22T16:26:07.171Z,29.80
2018-08-22T16:28:48.816Z,29.80
2018-08-22T16:31:16.444Z,29.70
2018-08-22T16:33:43.687Z,29.60
2018-08-22T16:36:15.644Z,29.60
2018-08-22T16:38:49.618Z,29.50
2018-08-22T16:41:16.992Z,29.50
2018-08-22T16:43:45.121Z,29.40
2018-08-22T16:46:14.954Z,29.30
2018-08-22T16:48:43.655Z,29.30
2018-08-22T16:51:12.132Z,29.20
2018-08-22T16:53:39.472Z,29.20
2018-08-22T16:56:06.838Z,29.10
2018-08-22T16:58:34.208Z,29.10
2018-08-22T17:01:01.669Z,29.00
2018-08-22T17:03:28.991Z,29.00
2018-08-22T17:06:02.489Z,28.90
2018-08-22T17:08:29.923Z,28.80
2018-08-22T17:10:58.645Z,28.80
2018-08-22T17:13:36.644Z,28.70
2018-08-22T17:16:04.087Z,28.70
2018-08-22T17:18:31.509Z,28.50
2018-08-22T17:20:58.868Z,28.50
2018-08-22T17:23:26.271Z,28.40
2018-08-22T17:25:53.559Z,28.40
2018-08-22T17:28:26.635Z,28.30
2018-08-22T17:30:53.913Z,28.30
2018-08-22T17:33:23.896Z,28.20
2018-08-22T17:35:55.964Z,28.10
2018-08-22T17:38:23.274Z,28.10
2018-08-22T17:40:50.605Z,28.00
2018-08-22T17:43:18.035Z,28.00
2018-08-22T17:45:52.020Z,28.00
2018-08-22T17:48:20.880Z,27.90
2018-08-22T17:50:48.444Z,27.80
2018-08-22T17:53:15.739Z,27.70
2018-08-22T17:55:43.003Z,27.70
2018-08-22T17:58:10.434Z,27.60
2018-08-22T18:00:38.380Z,27.60
2018-08-22T18:03:05.691Z,27.60
2018-08-22T18:05:34.219Z,27.50
2018-08-22T18:08:04.503Z,27.50
2018-08-22T18:10:33.947Z,27.50
2018-08-22T18:13:06.947Z,27.40
2018-08-22T18:15:34.233Z,27.40
2018-08-22T18:18:01.504Z,27.30
2018-08-22T18:20:29.051Z,27.30
2018-08-22T18:22:56.330Z,27.20
2018-08-22T18:27:55.879Z,27.00
2018-08-22T18:30:23.185Z,26.90
2018-08-22T18:32:50.468Z,26.90
2018-08-22T18:35:17.890Z,26.90
2018-08-22T18:37:45.174Z,26.70
2018-08-22T18:40:34.107Z,26.70
2018-08-22T18:43:03.724Z,26.60
2018-08-22T18:45:31.010Z,26.50
2018-08-22T18:48:01.507Z,26.40
2018-08-22T18:50:28.859Z,26.30
2018-08-22T18:52:58.288Z,26.20
2018-08-22T18:55:26.900Z,26.10
2018-08-22T18:57:54.954Z,26.10
2018-08-22T19:00:22.351Z,26.00
2018-08-22T19:02:51.199Z,25.90
2018-08-22T19:05:36.051Z,25.80
2018-08-22T19:08:06.980Z,25.80
2018-08-22T19:10:35.488Z,25.70
2018-08-22T19:13:15.437Z,25.70
2018-08-22T19:15:49.279Z,25.60
2018-08-22T19:18:16.912Z,25.50
2018-08-22T19:20:44.220Z,25.50
2018-08-22T19:23:11.512Z,25.40
2018-08-22T19:25:39.092Z,25.30
2018-08-22T19:28:06.420Z,25.30
2018-08-22T19:30:34.767Z,25.30
2018-08-22T19:33:02.172Z,25.20
2018-08-22T19:38:03.427Z,25.10
2018-08-22T19:40:30.762Z,25.10
2018-08-22T19:42:58.693Z,25.00
2018-08-22T19:45:26.015Z,25.00
2018-08-22T19:47:53.383Z,25.00
2018-08-22T19:50:20.892Z,24.90
2018-08-22T19:52:48.317Z,24.80
2018-08-22T19:55:15.615Z,24.80
2018-08-22T19:57:43.646Z,24.80
2018-08-22T20:00:11.926Z,24.70
2018-08-22T20:02:39.206Z,24.70
2018-08-22T20:05:07.961Z,24.60
2018-08-22T20:07:35.469Z,24.60
2018-08-22T20:10:02.883Z,24.60
2018-08-22T20:12:45.471Z,24.60
2018-08-22T20:15:12.823Z,24.50
2018-08-22T20:17:40.359Z,24.50
2018-08-22T20:20:09.035Z,24.40
2018-08-22T20:22:42.657Z,24.40
2018-08-22T20:25:10.451Z,24.30
2018-08-22T20:27:38.069Z,24.30
2018-08-22T20:30:12.492Z,24.20
2018-08-22T20:32:56.777Z,24.20
2018-08-22T20:35:32.571Z,24.20
2018-08-22T20:38:01.106Z,24.10
2018-08-22T20:40:29.313Z,24.10
2018-08-22T20:42:57.143Z,24.10
2018-08-22T20:45:30.064Z,24.00
2018-08-22T20:48:03.731Z,24.00
2018-08-22T20:50:31.561Z,24.00
2018-08-22T20:53:01.222Z,23.90
2018-08-22T20:55:28.789Z,23.80
2018-08-22T20:57:56.400Z,23.80
2018-08-22T21:00:24.567Z,23.80
2018-08-22T21:02:53.139Z,23.70
2018-08-22T21:05:20.854Z,23.70
2018-08-22T21:07:48.153Z,23.70
2018-08-22T21:10:15.810Z,23.60
2018-08-22T21:12:43.126Z,23.60
2018-08-22T21:15:10.425Z,23.50
2018-08-22T21:17:37.720Z,23.50
2018-08-22T21:20:26.182Z,23.50
2018-08-22T21:22:55.125Z,23.50
2018-08-22T21:25:22.451Z,23.40
2018-08-22T21:27:50.352Z,23.40
2018-08-22T21:30:17.814Z,23.30
2018-08-22T21:32:46.083Z,23.30
2018-08-22T21:35:22.867Z,23.30
2018-08-22T21:37:50.224Z,23.20
2018-08-22T21:40:17.563Z,23.20
2018-08-22T21:42:44.886Z,23.20
2018-08-22T21:45:12.199Z,23.10
2018-08-22T21:47:39.519Z,23.10
2018-08-22T21:50:07.027Z,23.00
2018-08-22T21:53:05.547Z,23.00
2018-08-22T21:55:49.433Z,23.00
2018-08-22T21:58:16.775Z,22.90
2018-08-22T22:00:44.119Z,22.90
2018-08-22T22:03:12.392Z,22.80
2018-08-22T22:05:54.358Z,22.80
2018-08-22T22:08:22.043Z,22.80
2018-08-22T22:10:57.639Z,22.70
2018-08-22T22:13:25.055Z,22.70
2018-08-22T22:15:52.663Z,22.60
2018-08-22T22:18:20.017Z,22.60
2018-08-22T22:20:48.951Z,22.60
2018-08-22T22:23:16.292Z,22.60
2018-08-22T22:25:43.654Z,22.50
2018-08-22T22:28:11.003Z,22.50
2018-08-22T22:30:38.375Z,22.40
2018-08-22T22:33:05.692Z,22.40
2018-08-22T22:35:35.816Z,22.40
2018-08-22T22:38:07.113Z,22.30
2018-08-22T22:40:34.651Z,22.30
2018-08-22T22:43:02.109Z,22.20
2018-08-22T22:45:29.568Z,22.20
2018-08-22T22:47:57.249Z,22.10
2018-08-22T22:50:24.543Z,22.00
2018-08-22T22:52:51.928Z,22.00
2018-08-22T22:55:19.267Z,21.90
2018-08-22T22:57:46.585Z,21.90
2018-08-22T23:00:15.955Z,21.80
2018-08-22T23:02:44.020Z,21.80
2018-08-22T23:05:11.327Z,21.70
2018-08-22T23:07:42.634Z,21.70
2018-08-22T23:10:12.176Z,21.60
2018-08-22T23:12:40.882Z,21.60
2018-08-22T23:15:09.407Z,21.50
2018-08-22T23:17:37.160Z,21.40
2018-08-22T23:20:23.903Z,21.40
2018-08-22T23:22:51.343Z,21.30
2018-08-22T23:25:18.643Z,21.30
2018-08-22T23:27:45.974Z,21.20
2018-08-22T23:30:18.417Z,21.20
2018-08-22T23:32:45.719Z,21.10
2018-08-22T23:35:24.589Z,21.10
2018-08-22T23:37:55.877Z,21.00
2018-08-22T23:40:24.302Z,21.00
2018-08-22T23:42:52.172Z,21.00
2018-08-22T23:45:19.471Z,20.90
2018-08-22T23:47:46.764Z,20.80
2018-08-22T23:50:14.136Z,20.80
2018-08-22T23:52:47.185Z,20.80
2018-08-22T23:55:14.519Z,20.70
2018-08-22T23:57:41.821Z,20.70
